sensor_id;sensor_type;location;lat;lon;timestamp;P1;durP1;ratioP1;P2;durP2;ratioP2
5060;SDS011;2549;52.128;21.068;2023-04-15T00:00:55;7.90;;;5.50;;
5060;SDS011;2549;52.128;21.068;2023-04-15T00:03:23;7.60;;;5.63;;
5060;SDS011;2549;52.128;21.068;2023-04-15T00:05:51;8.03;;;5.70;;
5060;SDS011;2549;52.128;21.068;2023-04-15T00:08:17;6.77;;;5.20;;
5060;SDS011;2549;52.128;21.068;2023-04-15T00:10:45;5.80;;;5.20;;
5060;SDS011;2549;52.128;21.068;2023-04-15T00:13:13;8.10;;;5.80;;
5060;SDS011;2549;52.128;21.068;2023-04-15T00:15:40;10.30;;;6.53;;
5060;SDS011;2549;52.128;21.068;2023-04-15T00:18:08;12.00;;;5.70;;
5060;SDS011;2549;52.128;21.068;2023-04-15T00:20:35;8.67;;;5.77;;
5060;SDS011;2549;52.128;21.068;2023-04-15T00:23:03;7.23;;;5.33;;
5060;SDS011;2549;52.128;21.068;2023-04-15T00:25:30;9.33;;;6.00;;
5060;SDS011;2549;52.128;21.068;2023-04-15T00:27:58;9.00;;;6.57;;
5060;SDS011;2549;52.128;21.068;2023-04-15T00:30:25;6.57;;;5.87;;
5060;SDS011;2549;52.128;21.068;2023-04-15T00:32:52;10.67;;;5.87;;
5060;SDS011;2549;52.128;21.068;2023-04-15T00:35:19;9.20;;;6.90;;
5060;SDS011;2549;52.128;21.068;2023-04-15T00:37:46;6.47;;;5.10;;
5060;SDS011;2549;52.128;21.068;2023-04-15T00:40:12;10.23;;;6.37;;
5060;SDS011;2549;52.128;21.068;2023-04-15T00:42:43;6.33;;;5.30;;
5060;SDS011;2549;52.128;21.068;2023-04-15T00:45:11;7.40;;;6.57;;
5060;SDS011;2549;52.128;21.068;2023-04-15T00:47:40;6.00;;;5.40;;
5060;SDS011;2549;52.128;21.068;2023-04-15T00:50:08;8.53;;;5.87;;
5060;SDS011;2549;52.128;21.068;2023-04-15T00:52:36;7.13;;;6.20;;
5060;SDS011;2549;52.128;21.068;2023-04-15T00:55:03;9.77;;;5.93;;
5060;SDS011;2549;52.128;21.068;2023-04-15T00:57:31;7.60;;;6.10;;
5060;SDS011;2549;52.128;21.068;2023-04-15T00:59:59;6.77;;;5.73;;
5060;SDS011;2549;52.128;21.068;2023-04-15T01:02:26;8.67;;;6.40;;
5060;SDS011;2549;52.128;21.068;2023-04-15T01:04:53;7.10;;;5.20;;
5060;SDS011;2549;52.128;21.068;2023-04-15T01:07:21;9.90;;;6.53;;
5060;SDS011;2549;52.128;21.068;2023-04-15T01:09:48;9.73;;;6.50;;
5060;SDS011;2549;52.128;21.068;2023-04-15T01:12:15;8.53;;;6.90;;
5060;SDS011;2549;52.128;21.068;2023-04-15T01:17:47;9.33;;;7.20;;
5060;SDS011;2549;52.128;21.068;2023-04-15T01:20:14;8.50;;;6.60;;
5060;SDS011;2549;52.128;21.068;2023-04-15T01:22:41;8.10;;;5.93;;
5060;SDS011;2549;52.128;21.068;2023-04-15T01:25:09;7.77;;;6.27;;
5060;SDS011;2549;52.128;21.068;2023-04-15T01:27:42;8.50;;;6.23;;
5060;SDS011;2549;52.128;21.068;2023-04-15T01:30:09;8.83;;;7.00;;
5060;SDS011;2549;52.128;21.068;2023-04-15T01:32:36;9.67;;;6.60;;
5060;SDS011;2549;52.128;21.068;2023-04-15T01:35:04;9.03;;;6.63;;
5060;SDS011;2549;52.128;21.068;2023-04-15T01:37:31;11.33;;;7.20;;
5060;SDS011;2549;52.128;21.068;2023-04-15T01:39:58;8.07;;;6.87;;
5060;SDS011;2549;52.128;21.068;2023-04-15T01:42:26;8.47;;;6.97;;
5060;SDS011;2549;52.128;21.068;2023-04-15T01:44:53;11.00;;;7.13;;
5060;SDS011;2549;52.128;21.068;2023-04-15T01:47:20;17.48;;;7.65;;
5060;SDS011;2549;52.128;21.068;2023-04-15T01:49:47;10.73;;;7.03;;
5060;SDS011;2549;52.128;21.068;2023-04-15T01:52:13;10.43;;;6.93;;
5060;SDS011;2549;52.128;21.068;2023-04-15T01:54:40;9.10;;;7.30;;
5060;SDS011;2549;52.128;21.068;2023-04-15T01:57:07;9.57;;;7.03;;
5060;SDS011;2549;52.128;21.068;2023-04-15T01:59:35;8.60;;;6.70;;
5060;SDS011;2549;52.128;21.068;2023-04-15T02:02:02;10.33;;;8.00;;
5060;SDS011;2549;52.128;21.068;2023-04-15T02:04:29;13.90;;;7.77;;
5060;SDS011;2549;52.128;21.068;2023-04-15T02:06:56;10.07;;;7.30;;
5060;SDS011;2549;52.128;21.068;2023-04-15T02:09:23;12.70;;;7.07;;
5060;SDS011;2549;52.128;21.068;2023-04-15T02:11:51;8.87;;;7.83;;
5060;SDS011;2549;52.128;21.068;2023-04-15T02:14:19;9.83;;;7.57;;
5060;SDS011;2549;52.128;21.068;2023-04-15T02:16:46;9.67;;;7.20;;
5060;SDS011;2549;52.128;21.068;2023-04-15T02:19:13;10.67;;;7.23;;
5060;SDS011;2549;52.128;21.068;2023-04-15T02:21:40;12.30;;;6.80;;
5060;SDS011;2549;52.128;21.068;2023-04-15T02:24:07;11.03;;;7.50;;
5060;SDS011;2549;52.128;21.068;2023-04-15T02:26:34;9.13;;;6.90;;
5060;SDS011;2549;52.128;21.068;2023-04-15T02:29:01;8.70;;;7.17;;
5060;SDS011;2549;52.128;21.068;2023-04-15T02:31:29;11.20;;;8.13;;
5060;SDS011;2549;52.128;21.068;2023-04-15T02:33:59;13.67;;;9.03;;
5060;SDS011;2549;52.128;21.068;2023-04-15T02:36:28;10.32;;;6.78;;
5060;SDS011;2549;52.128;21.068;2023-04-15T02:38:56;10.00;;;7.63;;
5060;SDS011;2549;52.128;21.068;2023-04-15T02:41:22;10.30;;;8.10;;
5060;SDS011;2549;52.128;21.068;2023-04-15T02:43:53;10.70;;;8.60;;
5060;SDS011;2549;52.128;21.068;2023-04-15T02:46:20;9.83;;;7.40;;
5060;SDS011;2549;52.128;21.068;2023-04-15T02:48:48;9.27;;;7.37;;
5060;SDS011;2549;52.128;21.068;2023-04-15T02:51:16;10.03;;;7.43;;
5060;SDS011;2549;52.128;21.068;2023-04-15T02:53:45;9.80;;;7.13;;
5060;SDS011;2549;52.128;21.068;2023-04-15T02:56:13;8.50;;;7.55;;
5060;SDS011;2549;52.128;21.068;2023-04-15T02:58:42;7.90;;;7.10;;
5060;SDS011;2549;52.128;21.068;2023-04-15T03:01:10;11.57;;;7.80;;
5060;SDS011;2549;52.128;21.068;2023-04-15T03:03:37;8.90;;;7.40;;
5060;SDS011;2549;52.128;21.068;2023-04-15T03:06:04;8.90;;;7.40;;
5060;SDS011;2549;52.128;21.068;2023-04-15T03:08:32;12.87;;;8.63;;
5060;SDS011;2549;52.128;21.068;2023-04-15T03:10:58;11.80;;;8.40;;
5060;SDS011;2549;52.128;21.068;2023-04-15T03:13:27;11.50;;;8.20;;
5060;SDS011;2549;52.128;21.068;2023-04-15T03:15:54;15.23;;;8.00;;
5060;SDS011;2549;52.128;21.068;2023-04-15T03:18:21;13.83;;;8.83;;
5060;SDS011;2549;52.128;21.068;2023-04-15T03:20:48;13.27;;;8.60;;
5060;SDS011;2549;52.128;21.068;2023-04-15T03:23:15;11.90;;;7.90;;
5060;SDS011;2549;52.128;21.068;2023-04-15T03:25:43;10.23;;;8.32;;
5060;SDS011;2549;52.128;21.068;2023-04-15T03:28:10;11.97;;;7.10;;
5060;SDS011;2549;52.128;21.068;2023-04-15T03:30:37;7.83;;;7.03;;
5060;SDS011;2549;52.128;21.068;2023-04-15T03:33:04;9.90;;;8.13;;
5060;SDS011;2549;52.128;21.068;2023-04-15T03:35:31;13.60;;;7.78;;
5060;SDS011;2549;52.128;21.068;2023-04-15T03:37:58;12.20;;;8.13;;
5060;SDS011;2549;52.128;21.068;2023-04-15T03:40:25;8.68;;;7.75;;
5060;SDS011;2549;52.128;21.068;2023-04-15T03:42:52;9.43;;;7.15;;
5060;SDS011;2549;52.128;21.068;2023-04-15T03:45:19;9.40;;;7.68;;
5060;SDS011;2549;52.128;21.068;2023-04-15T03:47:45;8.43;;;6.97;;
5060;SDS011;2549;52.128;21.068;2023-04-15T03:50:12;8.60;;;7.27;;
5060;SDS011;2549;52.128;21.068;2023-04-15T03:52:39;8.82;;;7.40;;
5060;SDS011;2549;52.128;21.068;2023-04-15T03:55:06;8.13;;;7.32;;
5060;SDS011;2549;52.128;21.068;2023-04-15T03:57:34;9.20;;;7.67;;
5060;SDS011;2549;52.128;21.068;2023-04-15T04:00:05;7.83;;;6.93;;
5060;SDS011;2549;52.128;21.068;2023-04-15T04:02:32;9.40;;;6.47;;
5060;SDS011;2549;52.128;21.068;2023-04-15T04:04:59;9.97;;;7.77;;
5060;SDS011;2549;52.128;21.068;2023-04-15T04:07:26;8.77;;;7.50;;
5060;SDS011;2549;52.128;21.068;2023-04-15T04:09:53;9.50;;;7.15;;
5060;SDS011;2549;52.128;21.068;2023-04-15T04:12:20;9.45;;;7.60;;
5060;SDS011;2549;52.128;21.068;2023-04-15T04:14:47;10.13;;;6.75;;
5060;SDS011;2549;52.128;21.068;2023-04-15T04:17:13;9.97;;;7.60;;
5060;SDS011;2549;52.128;21.068;2023-04-15T04:19:40;11.77;;;7.25;;
5060;SDS011;2549;52.128;21.068;2023-04-15T04:22:07;14.43;;;8.00;;
5060;SDS011;2549;52.128;21.068;2023-04-15T04:24:34;7.78;;;6.53;;
5060;SDS011;2549;52.128;21.068;2023-04-15T04:27:01;7.65;;;6.85;;
5060;SDS011;2549;52.128;21.068;2023-04-15T04:29:28;9.02;;;7.22;;
5060;SDS011;2549;52.128;21.068;2023-04-15T04:31:55;10.20;;;7.28;;
5060;SDS011;2549;52.128;21.068;2023-04-15T04:34:21;12.30;;;7.93;;
5060;SDS011;2549;52.128;21.068;2023-04-15T04:36:48;8.53;;;6.60;;
5060;SDS011;2549;52.128;21.068;2023-04-15T04:39:15;9.10;;;7.00;;
5060;SDS011;2549;52.128;21.068;2023-04-15T04:41:42;8.30;;;7.40;;
5060;SDS011;2549;52.128;21.068;2023-04-15T04:44:10;9.68;;;7.25;;
5060;SDS011;2549;52.128;21.068;2023-04-15T04:46:36;11.40;;;7.03;;
5060;SDS011;2549;52.128;21.068;2023-04-15T04:49:03;10.23;;;7.47;;
5060;SDS011;2549;52.128;21.068;2023-04-15T04:51:30;8.98;;;7.22;;
5060;SDS011;2549;52.128;21.068;2023-04-15T04:53:57;9.70;;;6.90;;
5060;SDS011;2549;52.128;21.068;2023-04-15T04:56:26;11.90;;;7.03;;
5060;SDS011;2549;52.128;21.068;2023-04-15T04:58:53;9.97;;;7.60;;
5060;SDS011;2549;52.128;21.068;2023-04-15T05:01:20;11.85;;;8.48;;
5060;SDS011;2549;52.128;21.068;2023-04-15T05:03:47;9.27;;;7.47;;
5060;SDS011;2549;52.128;21.068;2023-04-15T05:06:14;10.30;;;7.60;;
5060;SDS011;2549;52.128;21.068;2023-04-15T05:08:41;7.97;;;6.83;;
5060;SDS011;2549;52.128;21.068;2023-04-15T05:11:08;9.53;;;7.87;;
5060;SDS011;2549;52.128;21.068;2023-04-15T05:13:35;11.48;;;8.52;;
5060;SDS011;2549;52.128;21.068;2023-04-15T05:16:04;10.27;;;7.70;;
5060;SDS011;2549;52.128;21.068;2023-04-15T05:18:31;11.93;;;7.57;;
5060;SDS011;2549;52.128;21.068;2023-04-15T05:20:58;7.85;;;6.88;;
5060;SDS011;2549;52.128;21.068;2023-04-15T05:23:25;11.00;;;7.60;;
5060;SDS011;2549;52.128;21.068;2023-04-15T05:25:52;11.93;;;7.13;;
5060;SDS011;2549;52.128;21.068;2023-04-15T05:28:19;9.40;;;7.60;;
5060;SDS011;2549;52.128;21.068;2023-04-15T05:30:46;7.88;;;6.60;;
5060;SDS011;2549;52.128;21.068;2023-04-15T05:33:13;8.43;;;7.13;;
5060;SDS011;2549;52.128;21.068;2023-04-15T05:35:40;8.63;;;7.00;;
5060;SDS011;2549;52.128;21.068;2023-04-15T05:38:07;10.43;;;7.80;;
5060;SDS011;2549;52.128;21.068;2023-04-15T05:40:33;10.63;;;7.87;;
5060;SDS011;2549;52.128;21.068;2023-04-15T05:43:00;8.18;;;6.97;;
5060;SDS011;2549;52.128;21.068;2023-04-15T05:45:27;10.60;;;7.00;;
5060;SDS011;2549;52.128;21.068;2023-04-15T05:47:54;11.27;;;7.03;;
5060;SDS011;2549;52.128;21.068;2023-04-15T05:50:21;9.17;;;7.40;;
5060;SDS011;2549;52.128;21.068;2023-04-15T05:52:48;7.50;;;6.72;;
5060;SDS011;2549;52.128;21.068;2023-04-15T05:55:15;10.33;;;7.03;;
5060;SDS011;2549;52.128;21.068;2023-04-15T05:57:42;10.23;;;5.93;;
5060;SDS011;2549;52.128;21.068;2023-04-15T06:00:09;10.90;;;7.30;;
5060;SDS011;2549;52.128;21.068;2023-04-15T06:02:36;12.50;;;7.35;;
5060;SDS011;2549;52.128;21.068;2023-04-15T06:05:03;9.77;;;7.40;;
5060;SDS011;2549;52.128;21.068;2023-04-15T06:07:35;7.60;;;6.22;;
5060;SDS011;2549;52.128;21.068;2023-04-15T06:10:03;7.03;;;6.10;;
5060;SDS011;2549;52.128;21.068;2023-04-15T06:12:31;8.82;;;7.03;;
5060;SDS011;2549;52.128;21.068;2023-04-15T06:14:58;8.97;;;6.40;;
5060;SDS011;2549;52.128;21.068;2023-04-15T06:17:25;8.45;;;5.68;;
5060;SDS011;2549;52.128;21.068;2023-04-15T06:19:52;8.67;;;6.40;;
5060;SDS011;2549;52.128;21.068;2023-04-15T06:22:21;8.02;;;6.28;;
5060;SDS011;2549;52.128;21.068;2023-04-15T06:24:48;9.77;;;6.40;;
5060;SDS011;2549;52.128;21.068;2023-04-15T06:27:18;8.77;;;6.53;;
5060;SDS011;2549;52.128;21.068;2023-04-15T06:29:45;8.63;;;6.55;;
5060;SDS011;2549;52.128;21.068;2023-04-15T06:32:12;8.50;;;7.18;;
5060;SDS011;2549;52.128;21.068;2023-04-15T06:34:39;12.90;;;6.30;;
5060;SDS011;2549;52.128;21.068;2023-04-15T06:37:05;8.10;;;6.07;;
5060;SDS011;2549;52.128;21.068;2023-04-15T06:39:32;6.93;;;6.13;;
5060;SDS011;2549;52.128;21.068;2023-04-15T06:41:59;7.50;;;5.65;;
5060;SDS011;2549;52.128;21.068;2023-04-15T06:44:26;8.23;;;5.40;;
5060;SDS011;2549;52.128;21.068;2023-04-15T06:46:54;6.00;;;5.30;;
5060;SDS011;2549;52.128;21.068;2023-04-15T06:49:21;6.40;;;5.37;;
5060;SDS011;2549;52.128;21.068;2023-04-15T06:51:48;5.53;;;5.03;;
5060;SDS011;2549;52.128;21.068;2023-04-15T06:54:16;5.57;;;5.07;;
5060;SDS011;2549;52.128;21.068;2023-04-15T06:56:43;6.83;;;5.47;;
5060;SDS011;2549;52.128;21.068;2023-04-15T06:59:10;5.32;;;4.80;;
5060;SDS011;2549;52.128;21.068;2023-04-15T07:01:38;5.38;;;4.25;;
5060;SDS011;2549;52.128;21.068;2023-04-15T07:04:08;8.65;;;5.40;;
5060;SDS011;2549;52.128;21.068;2023-04-15T07:06:35;5.47;;;4.47;;
5060;SDS011;2549;52.128;21.068;2023-04-15T07:09:02;5.63;;;5.07;;
5060;SDS011;2549;52.128;21.068;2023-04-15T07:11:30;4.60;;;4.20;;
5060;SDS011;2549;52.128;21.068;2023-04-15T07:13:57;4.73;;;4.23;;
5060;SDS011;2549;52.128;21.068;2023-04-15T07:16:24;4.40;;;4.03;;
5060;SDS011;2549;52.128;21.068;2023-04-15T07:18:54;5.53;;;4.68;;
5060;SDS011;2549;52.128;21.068;2023-04-15T07:21:21;5.18;;;3.78;;
5060;SDS011;2549;52.128;21.068;2023-04-15T07:23:49;5.60;;;4.63;;
5060;SDS011;2549;52.128;21.068;2023-04-15T07:26:16;4.80;;;4.40;;
5060;SDS011;2549;52.128;21.068;2023-04-15T07:28:42;4.83;;;4.33;;
5060;SDS011;2549;52.128;21.068;2023-04-15T07:31:11;3.92;;;3.63;;
5060;SDS011;2549;52.128;21.068;2023-04-15T07:33:39;5.40;;;3.97;;
5060;SDS011;2549;52.128;21.068;2023-04-15T07:36:05;4.07;;;3.70;;
5060;SDS011;2549;52.128;21.068;2023-04-15T07:38:33;3.53;;;3.30;;
5060;SDS011;2549;52.128;21.068;2023-04-15T07:40:59;3.55;;;3.35;;
5060;SDS011;2549;52.128;21.068;2023-04-15T07:43:26;8.30;;;4.23;;
5060;SDS011;2549;52.128;21.068;2023-04-15T07:45:54;3.67;;;3.37;;
5060;SDS011;2549;52.128;21.068;2023-04-15T07:48:21;4.07;;;3.78;;
5060;SDS011;2549;52.128;21.068;2023-04-15T07:50:48;4.82;;;3.60;;
5060;SDS011;2549;52.128;21.068;2023-04-15T07:53:14;5.30;;;3.70;;
5060;SDS011;2549;52.128;21.068;2023-04-15T07:55:41;5.47;;;4.00;;
5060;SDS011;2549;52.128;21.068;2023-04-15T07:58:08;4.55;;;4.15;;
5060;SDS011;2549;52.128;21.068;2023-04-15T08:00:35;5.53;;;3.77;;
5060;SDS011;2549;52.128;21.068;2023-04-15T08:03:03;4.13;;;3.73;;
5060;SDS011;2549;52.128;21.068;2023-04-15T08:05:30;4.03;;;3.73;;
5060;SDS011;2549;52.128;21.068;2023-04-15T08:07:58;8.23;;;3.53;;
5060;SDS011;2549;52.128;21.068;2023-04-15T08:10:25;4.50;;;3.28;;
5060;SDS011;2549;52.128;21.068;2023-04-15T08:12:53;3.47;;;3.17;;
5060;SDS011;2549;52.128;21.068;2023-04-15T08:15:20;3.60;;;3.37;;
5060;SDS011;2549;52.128;21.068;2023-04-15T08:17:47;3.77;;;3.40;;
5060;SDS011;2549;52.128;21.068;2023-04-15T08:20:14;6.82;;;3.15;;
5060;SDS011;2549;52.128;21.068;2023-04-15T08:22:41;3.63;;;3.33;;
5060;SDS011;2549;52.128;21.068;2023-04-15T08:25:08;3.53;;;3.23;;
5060;SDS011;2549;52.128;21.068;2023-04-15T08:27:35;4.20;;;3.50;;
5060;SDS011;2549;52.128;21.068;2023-04-15T08:30:03;4.37;;;3.57;;
5060;SDS011;2549;52.128;21.068;2023-04-15T08:32:32;3.58;;;3.28;;
5060;SDS011;2549;52.128;21.068;2023-04-15T08:34:59;3.60;;;2.87;;
5060;SDS011;2549;52.128;21.068;2023-04-15T08:37:27;3.43;;;3.13;;
5060;SDS011;2549;52.128;21.068;2023-04-15T08:39:53;2.67;;;2.50;;
5060;SDS011;2549;52.128;21.068;2023-04-15T08:42:26;3.17;;;2.83;;
5060;SDS011;2549;52.128;21.068;2023-04-15T08:45:00;10.73;;;3.30;;
5060;SDS011;2549;52.128;21.068;2023-04-15T08:47:30;2.80;;;2.60;;
5060;SDS011;2549;52.128;21.068;2023-04-15T08:49:58;3.33;;;2.63;;
5060;SDS011;2549;52.128;21.068;2023-04-15T08:52:29;4.13;;;3.20;;
5060;SDS011;2549;52.128;21.068;2023-04-15T08:54:57;2.63;;;2.50;;
5060;SDS011;2549;52.128;21.068;2023-04-15T08:57:25;3.17;;;2.90;;
5060;SDS011;2549;52.128;21.068;2023-04-15T08:59:57;3.50;;;3.20;;
5060;SDS011;2549;52.128;21.068;2023-04-15T09:02:24;6.73;;;3.10;;
5060;SDS011;2549;52.128;21.068;2023-04-15T09:04:52;2.97;;;2.77;;
5060;SDS011;2549;52.128;21.068;2023-04-15T09:07:20;2.80;;;2.60;;
5060;SDS011;2549;52.128;21.068;2023-04-15T09:09:47;1.92;;;1.83;;
5060;SDS011;2549;52.128;21.068;2023-04-15T09:12:14;3.30;;;2.90;;
5060;SDS011;2549;52.128;21.068;2023-04-15T09:14:44;4.90;;;2.73;;
5060;SDS011;2549;52.128;21.068;2023-04-15T09:17:12;2.77;;;2.57;;
5060;SDS011;2549;52.128;21.068;2023-04-15T09:19:39;2.17;;;2.00;;
5060;SDS011;2549;52.128;21.068;2023-04-15T09:22:05;2.33;;;2.20;;
5060;SDS011;2549;52.128;21.068;2023-04-15T09:24:34;2.10;;;2.00;;
5060;SDS011;2549;52.128;21.068;2023-04-15T09:27:03;2.20;;;2.00;;
5060;SDS011;2549;52.128;21.068;2023-04-15T09:29:30;2.40;;;2.20;;
5060;SDS011;2549;52.128;21.068;2023-04-15T09:32:13;1.93;;;1.83;;
5060;SDS011;2549;52.128;21.068;2023-04-15T09:34:41;2.37;;;2.20;;
5060;SDS011;2549;52.128;21.068;2023-04-15T09:37:09;2.10;;;2.00;;
5060;SDS011;2549;52.128;21.068;2023-04-15T09:39:49;2.10;;;2.00;;
5060;SDS011;2549;52.128;21.068;2023-04-15T09:42:17;2.73;;;2.53;;
5060;SDS011;2549;52.128;21.068;2023-04-15T09:44:52;4.53;;;3.17;;
5060;SDS011;2549;52.128;21.068;2023-04-15T09:47:53;5.83;;;2.73;;
5060;SDS011;2549;52.128;21.068;2023-04-15T09:50:12;2.20;;;2.10;;
5060;SDS011;2549;52.128;21.068;2023-04-15T09:52:40;3.40;;;3.10;;
5060;SDS011;2549;52.128;21.068;2023-04-15T09:55:11;3.80;;;3.50;;
5060;SDS011;2549;52.128;21.068;2023-04-15T09:57:39;4.37;;;2.87;;
5060;SDS011;2549;52.128;21.068;2023-04-15T10:00:07;4.13;;;3.23;;
5060;SDS011;2549;52.128;21.068;2023-04-15T10:02:36;2.10;;;2.00;;
5060;SDS011;2549;52.128;21.068;2023-04-15T10:05:06;3.60;;;2.53;;
5060;SDS011;2549;52.128;21.068;2023-04-15T10:07:36;4.50;;;3.17;;
5060;SDS011;2549;52.128;21.068;2023-04-15T10:10:03;2.47;;;2.30;;
5060;SDS011;2549;52.128;21.068;2023-04-15T10:12:31;3.10;;;2.33;;
5060;SDS011;2549;52.128;21.068;2023-04-15T10:14:59;4.80;;;2.80;;
5060;SDS011;2549;52.128;21.068;2023-04-15T10:17:33;3.00;;;2.30;;
5060;SDS011;2549;52.128;21.068;2023-04-15T10:20:03;2.20;;;2.10;;
5060;SDS011;2549;52.128;21.068;2023-04-15T10:22:31;2.50;;;2.10;;
5060;SDS011;2549;52.128;21.068;2023-04-15T10:24:58;2.80;;;2.53;;
5060;SDS011;2549;52.128;21.068;2023-04-15T10:27:26;2.90;;;1.97;;
5060;SDS011;2549;52.128;21.068;2023-04-15T10:29:53;2.23;;;1.77;;
5060;SDS011;2549;52.128;21.068;2023-04-15T10:32:21;1.80;;;1.70;;
5060;SDS011;2549;52.128;21.068;2023-04-15T10:34:49;3.30;;;2.30;;
5060;SDS011;2549;52.128;21.068;2023-04-15T10:37:20;2.30;;;2.10;;
5060;SDS011;2549;52.128;21.068;2023-04-15T10:39:48;2.35;;;1.92;;
5060;SDS011;2549;52.128;21.068;2023-04-15T10:42:16;2.80;;;1.80;;
5060;SDS011;2549;52.128;21.068;2023-04-15T10:44:47;2.67;;;2.17;;
5060;SDS011;2549;52.128;21.068;2023-04-15T10:47:18;1.70;;;1.60;;
5060;SDS011;2549;52.128;21.068;2023-04-15T10:52:20;4.30;;;1.90;;
5060;SDS011;2549;52.128;21.068;2023-04-15T10:54:49;2.30;;;2.20;;
5060;SDS011;2549;52.128;21.068;2023-04-15T10:57:39;1.97;;;1.87;;
5060;SDS011;2549;52.128;21.068;2023-04-15T11:02:38;2.17;;;2.00;;
5060;SDS011;2549;52.128;21.068;2023-04-15T11:05:06;1.90;;;1.80;;
5060;SDS011;2549;52.128;21.068;2023-04-15T11:12:52;1.83;;;1.73;;
5060;SDS011;2549;52.128;21.068;2023-04-15T11:23:23;2.60;;;2.40;;
5060;SDS011;2549;52.128;21.068;2023-04-15T11:25:59;3.17;;;2.97;;
5060;SDS011;2549;52.128;21.068;2023-04-15T11:28:28;2.53;;;2.40;;
5060;SDS011;2549;52.128;21.068;2023-04-15T11:30:56;4.47;;;3.07;;
5060;SDS011;2549;52.128;21.068;2023-04-15T11:33:23;2.87;;;2.73;;
5060;SDS011;2549;52.128;21.068;2023-04-15T11:35:51;2.90;;;2.70;;
5060;SDS011;2549;52.128;21.068;2023-04-15T11:38:21;3.10;;;2.80;;
5060;SDS011;2549;52.128;21.068;2023-04-15T11:40:49;2.30;;;2.20;;
5060;SDS011;2549;52.128;21.068;2023-04-15T11:43:20;2.33;;;2.23;;
5060;SDS011;2549;52.128;21.068;2023-04-15T11:45:58;3.20;;;2.87;;
5060;SDS011;2549;52.128;21.068;2023-04-15T11:48:27;3.00;;;2.40;;
5060;SDS011;2549;52.128;21.068;2023-04-15T11:50:59;2.50;;;2.40;;
5060;SDS011;2549;52.128;21.068;2023-04-15T11:53:49;3.20;;;2.90;;
5060;SDS011;2549;52.128;21.068;2023-04-15T11:56:18;3.03;;;2.63;;
5060;SDS011;2549;52.128;21.068;2023-04-15T11:58:46;2.53;;;2.43;;
5060;SDS011;2549;52.128;21.068;2023-04-15T12:01:16;1.87;;;1.77;;
5060;SDS011;2549;52.128;21.068;2023-04-15T12:03:44;1.60;;;1.53;;
5060;SDS011;2549;52.128;21.068;2023-04-15T12:06:17;2.23;;;2.10;;
5060;SDS011;2549;52.128;21.068;2023-04-15T12:16:40;1.67;;;1.57;;
5060;SDS011;2549;52.128;21.068;2023-04-15T12:19:15;3.90;;;1.57;;
5060;SDS011;2549;52.128;21.068;2023-04-15T12:21:45;2.43;;;1.93;;
5060;SDS011;2549;52.128;21.068;2023-04-15T12:24:13;1.50;;;1.40;;
5060;SDS011;2549;52.128;21.068;2023-04-15T12:29:12;1.50;;;1.40;;
5060;SDS011;2549;52.128;21.068;2023-04-15T12:31:51;7.37;;;2.23;;
5060;SDS011;2549;52.128;21.068;2023-04-15T12:36:57;1.50;;;1.40;;
5060;SDS011;2549;52.128;21.068;2023-04-15T12:39:27;1.80;;;1.70;;
5060;SDS011;2549;52.128;21.068;2023-04-15T12:41:56;1.53;;;1.43;;
5060;SDS011;2549;52.128;21.068;2023-04-15T12:44:24;2.57;;;1.40;;
5060;SDS011;2549;52.128;21.068;2023-04-15T12:46:52;1.50;;;1.40;;
5060;SDS011;2549;52.128;21.068;2023-04-15T12:49:20;6.20;;;1.63;;
5060;SDS011;2549;52.128;21.068;2023-04-15T12:51:48;1.93;;;1.83;;
5060;SDS011;2549;52.128;21.068;2023-04-15T12:54:16;1.63;;;1.53;;
5060;SDS011;2549;52.128;21.068;2023-04-15T12:56:44;4.27;;;1.97;;
5060;SDS011;2549;52.128;21.068;2023-04-15T12:59:12;1.93;;;1.50;;
5060;SDS011;2549;52.128;21.068;2023-04-15T13:01:39;1.67;;;1.57;;
5060;SDS011;2549;52.128;21.068;2023-04-15T13:04:06;1.53;;;1.43;;
5060;SDS011;2549;52.128;21.068;2023-04-15T13:06:34;0.87;;;0.87;;
5060;SDS011;2549;52.128;21.068;2023-04-15T13:09:02;2.33;;;1.20;;
5060;SDS011;2549;52.128;21.068;2023-04-15T13:11:31;2.00;;;1.00;;
5060;SDS011;2549;52.128;21.068;2023-04-15T13:13:59;1.90;;;1.20;;
5060;SDS011;2549;52.128;21.068;2023-04-15T13:16:28;0.80;;;0.80;;
5060;SDS011;2549;52.128;21.068;2023-04-15T13:18:56;0.80;;;0.80;;
5060;SDS011;2549;52.128;21.068;2023-04-15T13:21:24;1.20;;;1.10;;
5060;SDS011;2549;52.128;21.068;2023-04-15T13:23:50;1.30;;;1.20;;
5060;SDS011;2549;52.128;21.068;2023-04-15T13:26:17;2.00;;;1.10;;
5060;SDS011;2549;52.128;21.068;2023-04-15T13:28:44;1.00;;;0.90;;
5060;SDS011;2549;52.128;21.068;2023-04-15T13:31:11;1.63;;;1.50;;
5060;SDS011;2549;52.128;21.068;2023-04-15T13:33:38;1.70;;;1.60;;
5060;SDS011;2549;52.128;21.068;2023-04-15T13:36:05;4.10;;;1.40;;
5060;SDS011;2549;52.128;21.068;2023-04-15T13:38:33;2.13;;;1.90;;
5060;SDS011;2549;52.128;21.068;2023-04-15T13:41:00;2.27;;;1.67;;
5060;SDS011;2549;52.128;21.068;2023-04-15T13:43:27;2.20;;;1.80;;
5060;SDS011;2549;52.128;21.068;2023-04-15T13:45:54;2.53;;;1.40;;
5060;SDS011;2549;52.128;21.068;2023-04-15T13:48:21;1.50;;;1.40;;
5060;SDS011;2549;52.128;21.068;2023-04-15T13:50:48;2.10;;;1.77;;
5060;SDS011;2549;52.128;21.068;2023-04-15T13:53:18;1.40;;;1.30;;
5060;SDS011;2549;52.128;21.068;2023-04-15T13:56:05;1.77;;;1.67;;
5060;SDS011;2549;52.128;21.068;2023-04-15T13:58:32;2.70;;;1.60;;
5060;SDS011;2549;52.128;21.068;2023-04-15T14:00:59;2.37;;;1.83;;
5060;SDS011;2549;52.128;21.068;2023-04-15T14:03:29;1.50;;;1.40;;
5060;SDS011;2549;52.128;21.068;2023-04-15T14:05:56;2.30;;;1.40;;
5060;SDS011;2549;52.128;21.068;2023-04-15T14:08:23;1.20;;;1.10;;
5060;SDS011;2549;52.128;21.068;2023-04-15T14:10:51;1.23;;;1.13;;
5060;SDS011;2549;52.128;21.068;2023-04-15T14:13:18;1.57;;;1.47;;
5060;SDS011;2549;52.128;21.068;2023-04-15T14:15:44;1.80;;;1.70;;
5060;SDS011;2549;52.128;21.068;2023-04-15T14:18:12;2.47;;;1.90;;
5060;SDS011;2549;52.128;21.068;2023-04-15T14:20:39;3.33;;;1.40;;
5060;SDS011;2549;52.128;21.068;2023-04-15T14:23:06;1.80;;;1.70;;
5060;SDS011;2549;52.128;21.068;2023-04-15T14:25:32;2.93;;;1.30;;
5060;SDS011;2549;52.128;21.068;2023-04-15T14:28:00;1.07;;;1.07;;
5060;SDS011;2549;52.128;21.068;2023-04-15T14:30:27;1.47;;;1.37;;
5060;SDS011;2549;52.128;21.068;2023-04-15T14:32:54;2.10;;;1.37;;
5060;SDS011;2549;52.128;21.068;2023-04-15T14:35:21;1.23;;;1.10;;
5060;SDS011;2549;52.128;21.068;2023-04-15T14:37:49;1.47;;;1.23;;
5060;SDS011;2549;52.128;21.068;2023-04-15T14:40:16;1.20;;;1.20;;
5060;SDS011;2549;52.128;21.068;2023-04-15T14:42:43;1.43;;;1.27;;
5060;SDS011;2549;52.128;21.068;2023-04-15T14:45:11;3.60;;;1.73;;
5060;SDS011;2549;52.128;21.068;2023-04-15T14:47:38;2.87;;;1.20;;
5060;SDS011;2549;52.128;21.068;2023-04-15T14:50:05;1.33;;;1.20;;
5060;SDS011;2549;52.128;21.068;2023-04-15T14:52:32;1.10;;;1.00;;
5060;SDS011;2549;52.128;21.068;2023-04-15T14:55:05;2.40;;;1.27;;
5060;SDS011;2549;52.128;21.068;2023-04-15T14:57:39;1.00;;;1.00;;
5060;SDS011;2549;52.128;21.068;2023-04-15T15:00:07;1.20;;;1.17;;
5060;SDS011;2549;52.128;21.068;2023-04-15T15:02:36;11.67;;;1.80;;
5060;SDS011;2549;52.128;21.068;2023-04-15T15:05:05;1.23;;;1.23;;
5060;SDS011;2549;52.128;21.068;2023-04-15T15:07:34;1.77;;;1.67;;
5060;SDS011;2549;52.128;21.068;2023-04-15T15:10:02;1.30;;;1.10;;
5060;SDS011;2549;52.128;21.068;2023-04-15T15:12:29;1.53;;;1.40;;
5060;SDS011;2549;52.128;21.068;2023-04-15T15:14:57;1.20;;;1.10;;
5060;SDS011;2549;52.128;21.068;2023-04-15T15:17:24;2.73;;;1.27;;
5060;SDS011;2549;52.128;21.068;2023-04-15T15:19:51;3.80;;;1.10;;
5060;SDS011;2549;52.128;21.068;2023-04-15T15:22:18;1.57;;;1.57;;
5060;SDS011;2549;52.128;21.068;2023-04-15T15:24:46;1.40;;;1.40;;
5060;SDS011;2549;52.128;21.068;2023-04-15T15:27:13;1.10;;;1.10;;
5060;SDS011;2549;52.128;21.068;2023-04-15T15:29:40;1.30;;;1.20;;
5060;SDS011;2549;52.128;21.068;2023-04-15T15:32:07;1.53;;;1.40;;
5060;SDS011;2549;52.128;21.068;2023-04-15T15:34:34;1.03;;;1.03;;
5060;SDS011;2549;52.128;21.068;2023-04-15T15:37:01;1.10;;;1.00;;
5060;SDS011;2549;52.128;21.068;2023-04-15T15:39:28;0.87;;;0.87;;